Grissom ARB Airport
KGUS : now visible

Airfield :











YOU CAN JOIN US ON...

 
LOGIN :

Register | Disclaimer

   EN    FR    IT 

 









Legend :    VFR   Marginal VFR   IFR   Intensive IFR   Very Intensive IFR
Visi :
Ceiling :
>= 8 km
>= 3000ft
5 to 8 km
1000 to 3000 ft
1500m to 5 km
500 to 1000 ft
800 to 1500m
200 to 500 ft
< 800m
< 200 ft
Symbols :   Thunderstorms  Fog  Heavy snow  Heavy precipitations  Wind > 20 kt






- Airport Elevation : 812 ft


KGUS - Grissom ARB

METAR N/A
TAF TAF KGUS
Valid from the 18 at 13:00 until the 19 at 19:00 UTC


181300Z 1813/1919 13009KT 9999 SCT004 BKN090 QNH3023INS
BECMG 1817/1818 16010G15KT 9999 VCSH SCT040 BKN090 QNH3021INS
BECMG 1819/1820 16010G15KT 9000 -SHRA BKN040 OVC090 QNH3020INS
BECMG 1823/1824 13006KT 9999 SCT040 QNH3019INS
BECMG 1914/1915 19020G25KT 9999 BKN028 OVC040 QNH3026INS TX22/1820Z TN13/1813Z
KZAU FIR / North America



MET'MAP, your aeronautical weather chart ! - Copyright ORBIFLY December 2007 - Disclaimer

ORBIFLY MET'MAP TEAM :

Programming & Development : Alexandra Zaïnal
Concept & original design : Baudouin d'Aumeries
Assistance for programming : Marc-Olivier Méhu
Technical & hardware support : Manuel Goepfert

Contact : metmap@orbifly.com




SOURCES & CREDITS :

   NOAA       Earth
Advisory